Glory Ocean — 9VDE7 — position and weather

sailwx.info

Track history (hours):
 
Tides and Currents Weather Stations Pressure Air Temp Water Temp Dewpoint Dewpoint Depression Visibility Wind Speed Wind Dir Waves Ship Positions

Glory Ocean

Last reported at 2016-Aug-16 20:08 UTC. Time now 2016-Aug-24 04:56 UTC.
Position N 40°54' W 030°40'.

Length 139 m; draft 9 m.

Type: Cargo ship. MMSI: 564700000.

Date/timePositionNaut miles runAvg speedWind from/ knotsBaromVisibWave heightAir tempDewpointWater temp
2016-Aug-16 20:08N 40°54' W 030°40'8911.3
2016-Aug-16 12:13N 40°38' W 028°44'25410.5
2016-Aug-15 12:04N 39°46' W 023°18'8811.5
2016-Aug-15 04:27N 39°24' W 021°28'1411.8
2016-Aug-15 03:15N 39°21' W 021°10'811.8
2016-Aug-15 02:33N 39°19' W 020°60'1211.8
2016-Aug-15 01:32N 39°16' W 020°45'1211.8
2016-Aug-15 00:33N 39°13' W 020°30'1611.9
2016-Aug-14 23:14N 39°09' W 020°11'30012.1
2016-Aug-13 22:33N 37°40' W 014°06'1212.4
2016-Aug-13 21:33N 37°36' W 013°51'1212.4
2016-Aug-13 20:33N 37°32' W 013°36'1212.1
2016-Aug-13 19:33N 37°28' W 013°22'1211.9
2016-Aug-13 18:33N 37°24' W 013°08'1211.7
2016-Aug-13 17:33N 37°20' W 012°54'1212.1
2016-Aug-13 16:33N 37°15' W 012°40'1212.1
2016-Aug-13 15:33N 37°11' W 012°26'1212.2
2016-Aug-13 14:33N 37°06' W 012°11'1212.3
2016-Aug-13 13:33N 37°02' W 011°57'1312.2
2016-Aug-13 12:31N 36°57' W 011°42'1212.2
2016-Aug-13 11:33N 36°53' W 011°28'1212.2
2016-Aug-13 10:33N 36°49' W 011°14'5212.0
2016-Aug-13 06:15N 36°30' W 010°14'912.0
2016-Aug-13 05:30N 36°27' W 010°04'8812.0
2016-Aug-12 22:11N 35°58' W 008°21'812.2
2016-Aug-12 21:32N 35°58' W 008°11'12511.0
2016-Aug-12 10:11N 35°58' W 005°36'812.5
2016-Aug-12 09:33N 36°01' W 005°27'9 9.0
2016-Aug-12 08:33N 36°09' W 005°22'0 0.1
2016-Aug-12 07:19N 36°08' W 005°22'0 0.0
2016-Aug-12 06:25N 36°08' W 005°22'0 0.1
2016-Aug-12 05:28N 36°09' W 005°22'0 0.0
2016-Aug-12 04:28N 36°08' W 005°22'0 0.0
2016-Aug-12 03:31N 36°09' W 005°22'0 0.1
2016-Aug-12 02:25N 36°08' W 005°22'0 0.0
2016-Aug-12 01:25N 36°08' W 005°22'0 0.0
2016-Aug-12 00:31N 36°08' W 005°22'0 0.0
2016-Aug-11 23:25N 36°08' W 005°22'0 0.1
2016-Aug-11 22:28N 36°08' W 005°22'5 5.0
2016-Aug-11 21:33N 36°05' W 005°19'1110.9
2016-Aug-11 20:31N 36°06' W 005°05'11311.3
2016-Aug-11 10:27N 36°22' W 002°46'1112.3
2016-Aug-11 09:31N 36°24' W 002°32'50512.3
2016-Aug-09 16:20N 37°38' E 007°54'3812.6
2016-Aug-09 13:21N 37°44' E 008°41'2212.3
2016-Aug-09 11:32N 37°47' E 009°09'1212.1
2016-Aug-09 10:33N 37°49' E 009°24'18811.0
2016-Aug-08 17:30N 37°03' E 013°14'1010.2
2016-Aug-08 16:34N 36°59' E 013°24'1010.5
2016-Aug-08 15:34N 36°53' E 013°35'1111.2
2016-Aug-08 14:34N 36°47' E 013°47'1111.4
2016-Aug-08 13:34N 36°41' E 013°60'1212.0
2016-Aug-08 12:34N 36°35' E 014°12'1212.2
2016-Aug-08 11:34N 36°29' E 014°25'1212.1
2016-Aug-08 10:34N 36°25' E 014°40'1312.4
2016-Aug-08 09:33N 36°24' E 014°55'39711.9
2016-Aug-07 00:16N 36°02' E 023°06'1112.9
2016-Aug-06 23:24N 36°10' E 023°15'1112.5
2016-Aug-06 22:33N 36°20' E 023°22'1312.6
2016-Aug-06 21:32N 36°30' E 023°30'1212.4
2016-Aug-06 20:33N 36°41' E 023°38'  
Track history (hours):
 
Tides and Currents Weather Stations Pressure Air Temp Water Temp Dewpoint Dewpoint Depression Visibility Wind Speed Wind Dir Waves Ship Positions

Glory Ocean

Last reported at 2016-Aug-16 20:08 UTC. Time now 2016-Aug-24 04:56 UTC.
Position N 40°54' W 030°40'.

Length 139 m; draft 9 m.

Type: Cargo ship. MMSI: 564700000.

Date/timePositionNaut miles runAvg speedWind from/ knotsBaromVisibWave heightAir tempDewpointWater temp
2016-Aug-16 20:08N 40°54' W 030°40'8911.3
2016-Aug-16 12:13N 40°38' W 028°44'25410.5
2016-Aug-15 12:04N 39°46' W 023°18'8811.5
2016-Aug-15 04:27N 39°24' W 021°28'1411.8
2016-Aug-15 03:15N 39°21' W 021°10'811.8
2016-Aug-15 02:33N 39°19' W 020°60'1211.8
2016-Aug-15 01:32N 39°16' W 020°45'1211.8
2016-Aug-15 00:33N 39°13' W 020°30'1611.9
2016-Aug-14 23:14N 39°09' W 020°11'30012.1
2016-Aug-13 22:33N 37°40' W 014°06'1212.4
2016-Aug-13 21:33N 37°36' W 013°51'1212.4
2016-Aug-13 20:33N 37°32' W 013°36'1212.1
2016-Aug-13 19:33N 37°28' W 013°22'1211.9
2016-Aug-13 18:33N 37°24' W 013°08'1211.7
2016-Aug-13 17:33N 37°20' W 012°54'1212.1
2016-Aug-13 16:33N 37°15' W 012°40'1212.1
2016-Aug-13 15:33N 37°11' W 012°26'1212.2
2016-Aug-13 14:33N 37°06' W 012°11'1212.3
2016-Aug-13 13:33N 37°02' W 011°57'1312.2
2016-Aug-13 12:31N 36°57' W 011°42'1212.2
2016-Aug-13 11:33N 36°53' W 011°28'1212.2
2016-Aug-13 10:33N 36°49' W 011°14'5212.0
2016-Aug-13 06:15N 36°30' W 010°14'912.0
2016-Aug-13 05:30N 36°27' W 010°04'8812.0
2016-Aug-12 22:11N 35°58' W 008°21'812.2
2016-Aug-12 21:32N 35°58' W 008°11'12511.0
2016-Aug-12 10:11N 35°58' W 005°36'812.5
2016-Aug-12 09:33N 36°01' W 005°27'9 9.0
2016-Aug-12 08:33N 36°09' W 005°22'0 0.1
2016-Aug-12 07:19N 36°08' W 005°22'0 0.0
2016-Aug-12 06:25N 36°08' W 005°22'0 0.1
2016-Aug-12 05:28N 36°09' W 005°22'0 0.0
2016-Aug-12 04:28N 36°08' W 005°22'0 0.0
2016-Aug-12 03:31N 36°09' W 005°22'0 0.1
2016-Aug-12 02:25N 36°08' W 005°22'0 0.0
2016-Aug-12 01:25N 36°08' W 005°22'0 0.0
2016-Aug-12 00:31N 36°08' W 005°22'0 0.0
2016-Aug-11 23:25N 36°08' W 005°22'0 0.1
2016-Aug-11 22:28N 36°08' W 005°22'5 5.0
2016-Aug-11 21:33N 36°05' W 005°19'1110.9
2016-Aug-11 20:31N 36°06' W 005°05'11311.3
2016-Aug-11 10:27N 36°22' W 002°46'1112.3
2016-Aug-11 09:31N 36°24' W 002°32'50512.3
2016-Aug-09 16:20N 37°38' E 007°54'3812.6
2016-Aug-09 13:21N 37°44' E 008°41'2212.3
2016-Aug-09 11:32N 37°47' E 009°09'1212.1
2016-Aug-09 10:33N 37°49' E 009°24'18811.0
2016-Aug-08 17:30N 37°03' E 013°14'1010.2
2016-Aug-08 16:34N 36°59' E 013°24'1010.5
2016-Aug-08 15:34N 36°53' E 013°35'1111.2
2016-Aug-08 14:34N 36°47' E 013°47'1111.4
2016-Aug-08 13:34N 36°41' E 013°60'1212.0
2016-Aug-08 12:34N 36°35' E 014°12'1212.2
2016-Aug-08 11:34N 36°29' E 014°25'1212.1
2016-Aug-08 10:34N 36°25' E 014°40'1312.4
2016-Aug-08 09:33N 36°24' E 014°55'39711.9
2016-Aug-07 00:16N 36°02' E 023°06'1112.9
2016-Aug-06 23:24N 36°10' E 023°15'1112.5
2016-Aug-06 22:33N 36°20' E 023°22'1312.6
2016-Aug-06 21:32N 36°30' E 023°30'1212.4
2016-Aug-06 20:33N 36°41' E 023°38'  

Dump ship's entire track history